Current Weather

Tappahannock/Essex County

Tappahannock, Virginia (KXSA)

Report from: Thursday, April 25, 2024 4:35 AM UTC
Current time: Thursday, April 25, 2024 4:48 AM UTC

Nearby weather – Weather history – Daily summaries
Weather forecast

Temperature12.5°C (54.5°F)
Dew point9.0°C (48.2°F)
Winds Calm
Visibility10 mi. (16.1 km)
Clouds Ceiling: Broken clouds 9,000 ft. (2,743 m)
Altimeter30.08 in.Hg (1019 mB)
Relative humidity79 %
Density altitude-316 ft. (-96 m)
Remarks Fully automated report
Automated weather observing station with precipitation discriminator
Flight conditions Visual Meteorological Conditions
Raw dataKXSA 250435Z AUTO 00000KT 10SM BKN090 13/09 A3008 RMK AO2 T01250090
An error has occurred. This application may no longer respond until reloaded. Reload 🗙